createdAt,value
2019-01-20T00:02:25.062Z,-3.50
2019-01-20T00:04:53.683Z,-3.60
2019-01-20T00:07:22.277Z,-3.60
2019-01-20T00:09:50.906Z,-3.60
2019-01-20T00:12:19.547Z,-3.50
2019-01-20T00:14:48.113Z,-3.50
2019-01-20T00:17:19.243Z,-3.50
2019-01-20T00:19:47.880Z,-3.50
2019-01-20T00:22:17.493Z,-3.60
2019-01-20T00:24:46.288Z,-3.60
2019-01-20T00:27:14.974Z,-3.60
2019-01-20T00:29:43.562Z,-3.50
2019-01-20T00:32:12.240Z,-3.60
2019-01-20T00:34:40.879Z,-3.50
2019-01-20T00:37:09.482Z,-3.50
2019-01-20T00:39:38.862Z,-3.50
2019-01-20T00:42:07.443Z,-3.40
2019-01-20T00:44:36.310Z,-3.20
2019-01-20T00:47:05.002Z,-3.00
2019-01-20T00:49:33.593Z,-3.00
2019-01-20T00:52:02.392Z,-3.10
2019-01-20T00:54:31.093Z,-3.20
2019-01-20T00:56:59.678Z,-3.30
2019-01-20T00:59:32.650Z,-3.40
2019-01-20T01:02:01.406Z,-3.50
2019-01-20T01:04:30.226Z,-3.60
2019-01-20T01:06:58.998Z,-3.60
2019-01-20T01:09:27.567Z,-3.70
2019-01-20T01:11:58.094Z,-3.70
2019-01-20T01:14:26.666Z,-3.80
2019-01-20T01:16:55.249Z,-3.80
2019-01-20T01:19:23.822Z,-3.80
2019-01-20T01:21:52.407Z,-3.90
2019-01-20T01:24:20.981Z,-3.90
2019-01-20T01:26:49.560Z,-3.90
2019-01-20T01:29:18.122Z,-4.00
2019-01-20T01:31:46.702Z,-3.90
2019-01-20T01:34:16.051Z,-3.90
2019-01-20T01:36:44.635Z,-3.80
2019-01-20T01:39:13.221Z,-3.80
2019-01-20T01:41:41.914Z,-3.70
2019-01-20T01:44:10.485Z,-3.60
2019-01-20T01:46:39.071Z,-3.50
2019-01-20T01:49:07.712Z,-3.40
2019-01-20T01:51:36.282Z,-3.40
2019-01-20T01:54:04.890Z,-3.30
2019-01-20T01:56:35.125Z,-3.30
2019-01-20T01:59:03.708Z,-3.20
2019-01-20T02:01:32.283Z,-3.20
2019-01-20T02:04:00.853Z,-3.10
2019-01-20T02:06:29.427Z,-3.10
2019-01-20T02:08:58.010Z,-3.00
2019-01-20T02:11:26.568Z,-3.00
2019-01-20T02:13:55.157Z,-2.90
2019-01-20T02:16:23.729Z,-2.80
2019-01-20T02:18:53.121Z,-2.80
2019-01-20T02:21:21.749Z,-2.70
2019-01-20T02:23:50.317Z,-2.60
2019-01-20T02:26:18.889Z,-2.50
2019-01-20T02:28:47.467Z,-2.50
2019-01-20T02:31:16.038Z,-2.40
2019-01-20T02:33:44.604Z,-2.40
2019-01-20T02:36:13.325Z,-2.30
2019-01-20T02:38:41.906Z,-2.30
2019-01-20T02:41:10.491Z,-2.20
2019-01-20T02:43:39.069Z,-2.10
2019-01-20T02:46:07.645Z,-2.00
2019-01-20T02:48:36.236Z,-2.00
2019-01-20T02:51:04.820Z,-2.00
2019-01-20T02:53:33.405Z,-2.00
2019-01-20T02:56:01.982Z,-1.90
2019-01-20T02:58:30.570Z,-1.80
2019-01-20T03:00:59.150Z,-1.80
2019-01-20T03:03:29.130Z,-1.80
2019-01-20T03:05:57.709Z,-1.80
2019-01-20T03:08:26.276Z,-1.70
2019-01-20T03:10:55.049Z,-1.70
2019-01-20T03:13:23.647Z,-1.70
2019-01-20T03:15:52.234Z,-1.70
2019-01-20T03:18:20.803Z,-1.60
2019-01-20T03:20:49.388Z,-1.70
2019-01-20T03:23:17.956Z,-1.70
2019-01-20T03:25:46.529Z,-1.70
2019-01-20T03:28:15.106Z,-1.80
2019-01-20T03:30:43.693Z,-1.80
2019-01-20T03:33:12.263Z,-1.80
2019-01-20T03:35:40.852Z,-1.90
2019-01-20T03:38:09.416Z,-1.90
2019-01-20T03:40:37.986Z,-2.00
2019-01-20T03:43:06.693Z,-2.10
2019-01-20T03:45:35.335Z,-2.10
2019-01-20T03:48:03.936Z,-2.10
2019-01-20T03:50:32.518Z,-2.10
2019-01-20T03:53:01.087Z,-2.10
2019-01-20T03:55:29.676Z,-2.20
2019-01-20T03:57:58.237Z,-2.10
2019-01-20T04:00:26.810Z,-2.10
2019-01-20T04:03:05.084Z,-2.20
2019-01-20T04:05:33.642Z,-2.10
2019-01-20T04:08:02.236Z,-2.20
2019-01-20T04:10:30.800Z,-2.10
2019-01-20T04:12:59.391Z,-2.10
2019-01-20T04:15:28.038Z,-2.10
2019-01-20T04:17:56.634Z,-2.00
2019-01-20T04:20:25.210Z,-2.00
2019-01-20T04:22:53.794Z,-2.00
2019-01-20T04:25:22.379Z,-2.00
2019-01-20T04:27:50.969Z,-2.10
2019-01-20T04:30:20.130Z,-2.20
2019-01-20T04:32:48.780Z,-2.30
2019-01-20T04:35:17.373Z,-2.30
2019-01-20T04:37:45.949Z,-2.40
2019-01-20T04:40:17.026Z,-2.50
2019-01-20T04:42:45.586Z,-2.60
2019-01-20T04:45:14.193Z,-2.70
2019-01-20T04:47:43.128Z,-2.80
2019-01-20T04:50:16.601Z,-2.80
2019-01-20T04:52:46.154Z,-2.90
2019-01-20T04:55:14.911Z,-3.00
2019-01-20T04:57:46.223Z,-3.00
2019-01-20T05:00:17.249Z,-3.00
2019-01-20T05:02:45.813Z,-3.10
2019-01-20T05:05:14.406Z,-3.10
2019-01-20T05:07:42.991Z,-3.20
2019-01-20T05:10:13.032Z,-3.20
2019-01-20T05:12:41.677Z,-3.30
2019-01-20T05:15:12.369Z,-3.30
2019-01-20T05:17:40.949Z,-3.40
2019-01-20T05:20:09.569Z,-3.40
2019-01-20T05:22:38.231Z,-3.40
2019-01-20T05:25:07.156Z,-3.50
2019-01-20T05:27:35.756Z,-3.50
2019-01-20T05:30:05.608Z,-3.50
2019-01-20T05:32:34.197Z,-3.50
2019-01-20T05:35:02.794Z,-3.60
2019-01-20T05:37:31.417Z,-3.50
2019-01-20T05:39:59.991Z,-3.50
2019-01-20T05:42:28.570Z,-3.50
2019-01-20T05:44:57.178Z,-3.50
2019-01-20T05:47:27.278Z,-3.50
2019-01-20T05:49:55.870Z,-3.50
2019-01-20T05:52:24.453Z,-3.50
2019-01-20T05:54:53.070Z,-3.50
2019-01-20T05:57:21.637Z,-3.50
2019-01-20T05:59:50.218Z,-3.50
2019-01-20T06:02:18.790Z,-3.50
2019-01-20T06:04:47.410Z,-3.50
2019-01-20T06:07:15.985Z,-3.50
2019-01-20T06:09:44.625Z,-3.50
2019-01-20T06:12:13.216Z,-3.50
2019-01-20T06:14:41.802Z,-3.50
2019-01-20T06:17:10.377Z,-3.60
2019-01-20T06:19:38.977Z,-3.60
2019-01-20T06:22:07.554Z,-3.50
2019-01-20T06:24:36.144Z,-3.60
2019-01-20T06:27:04.719Z,-3.60
2019-01-20T06:29:33.302Z,-3.60
2019-01-20T06:32:01.896Z,-3.60
2019-01-20T06:34:30.485Z,-3.70
2019-01-20T06:36:59.086Z,-3.70
2019-01-20T06:39:29.035Z,-3.70
2019-01-20T06:41:57.610Z,-3.80
2019-01-20T06:44:26.198Z,-3.80
2019-01-20T06:46:54.778Z,-3.80
2019-01-20T06:49:23.392Z,-3.90
2019-01-20T06:51:51.978Z,-3.90
2019-01-20T06:54:20.578Z,-4.00
2019-01-20T06:56:49.155Z,-4.00
2019-01-20T06:59:18.169Z,-4.00
2019-01-20T07:01:46.770Z,-4.00
2019-01-20T07:04:15.367Z,-4.10
2019-01-20T07:06:44.016Z,-4.10
2019-01-20T07:09:12.586Z,-4.20
2019-01-20T07:11:41.152Z,-4.20
2019-01-20T07:14:09.721Z,-4.20
2019-01-20T07:16:38.309Z,-4.30
2019-01-20T07:19:06.950Z,-4.30
2019-01-20T07:21:36.201Z,-4.30
2019-01-20T07:24:04.811Z,-4.30
2019-01-20T07:26:33.397Z,-4.30
2019-01-20T07:29:01.964Z,-4.20
2019-01-20T07:31:30.541Z,-4.10
2019-01-20T07:33:59.112Z,-4.10
2019-01-20T07:36:27.690Z,-4.00
2019-01-20T07:38:56.250Z,-3.90
2019-01-20T07:41:24.836Z,-3.80
2019-01-20T07:43:54.194Z,-3.70
2019-01-20T07:46:22.794Z,-3.50
2019-01-20T07:48:51.390Z,-3.30
2019-01-20T07:51:19.974Z,-3.20
2019-01-20T07:53:48.558Z,-3.00
2019-01-20T07:56:17.146Z,-2.90
2019-01-20T07:58:45.718Z,-2.80
2019-01-20T08:01:14.294Z,-2.60
2019-01-20T08:03:42.872Z,-2.50
2019-01-20T08:06:12.079Z,-2.50
2019-01-20T08:08:40.661Z,-2.40
2019-01-20T08:11:09.230Z,-2.20
2019-01-20T08:13:37.811Z,-2.20
2019-01-20T08:16:06.398Z,-2.10
2019-01-20T08:18:34.974Z,-2.10
2019-01-20T08:21:03.592Z,-2.00
2019-01-20T08:23:32.160Z,-1.90
2019-01-20T08:26:01.020Z,-1.80
2019-01-20T08:28:29.619Z,-1.80
2019-01-20T08:30:58.221Z,-1.70
2019-01-20T08:33:26.778Z,-1.30
2019-01-20T08:35:55.357Z,-1.10
2019-01-20T08:38:24.046Z,-0.90
2019-01-20T08:40:52.629Z,-0.80
2019-01-20T08:43:31.542Z,-0.80
2019-01-20T08:46:42.702Z,-0.50
2019-01-20T08:49:11.289Z,-0.10
2019-01-20T08:51:41.238Z,0.00
2019-01-20T08:54:09.858Z,-0.10
2019-01-20T08:56:38.451Z,0.00
2019-01-20T08:59:07.017Z,-0.20
2019-01-20T09:01:35.608Z,-0.20
2019-01-20T09:04:04.817Z,0.10
2019-01-20T09:06:33.482Z,0.50
2019-01-20T09:09:03.773Z,1.00
2019-01-20T09:11:33.768Z,1.30
2019-01-20T09:14:02.582Z,1.30
2019-01-20T09:16:31.272Z,1.60
2019-01-20T09:18:59.898Z,1.60
2019-01-20T09:21:28.492Z,1.70
2019-01-20T09:23:57.070Z,1.70
2019-01-20T09:26:25.658Z,1.80
2019-01-20T09:28:55.765Z,2.10
2019-01-20T09:31:24.342Z,2.10
2019-01-20T09:33:55.511Z,2.10
2019-01-20T09:36:28.416Z,1.90
2019-01-20T09:38:57.206Z,1.20
2019-01-20T09:41:26.102Z,1.00
2019-01-20T09:43:54.813Z,1.00
2019-01-20T09:46:23.377Z,0.50
2019-01-20T09:48:52.008Z,0.30
2019-01-20T09:51:20.910Z,0.20
2019-01-20T09:53:49.563Z,0.20
2019-01-20T09:56:18.126Z,0.50
2019-01-20T09:58:49.361Z,0.80
2019-01-20T10:01:20.825Z,1.30
2019-01-20T10:03:58.469Z,1.50
2019-01-20T10:06:27.068Z,2.00
2019-01-20T10:08:55.654Z,2.10
2019-01-20T10:11:24.237Z,2.00
2019-01-20T10:13:54.858Z,2.50
2019-01-20T10:16:23.133Z,3.10
2019-01-20T10:18:51.706Z,3.50
2019-01-20T10:21:20.344Z,3.50
2019-01-20T10:23:48.938Z,4.30
2019-01-20T10:26:17.510Z,3.70
2019-01-20T10:28:46.123Z,3.90
2019-01-20T10:31:14.710Z,3.50
2019-01-20T10:33:43.330Z,3.30
2019-01-20T10:36:12.351Z,2.80
2019-01-20T10:38:40.946Z,2.30
2019-01-20T10:41:09.516Z,2.20
2019-01-20T10:43:38.089Z,2.20
2019-01-20T10:46:06.683Z,1.80
2019-01-20T10:48:35.283Z,2.30
2019-01-20T10:51:03.848Z,2.80
2019-01-20T10:53:32.429Z,3.60
2019-01-20T10:56:01.017Z,4.10
2019-01-20T10:58:29.994Z,4.20
2019-01-20T11:00:58.569Z,5.10
2019-01-20T11:03:27.272Z,5.20
2019-01-20T11:05:55.862Z,5.40
2019-01-20T11:08:25.802Z,5.10
2019-01-20T11:10:54.579Z,5.70
2019-01-20T11:13:23.199Z,5.70
2019-01-20T11:15:51.907Z,6.10
2019-01-20T11:18:20.566Z,5.90
2019-01-20T11:20:49.212Z,5.80
2019-01-20T11:23:19.365Z,6.00
2019-01-20T11:25:47.950Z,6.30
2019-01-20T11:28:16.555Z,6.50
2019-01-20T11:30:45.141Z,6.80
2019-01-20T11:33:13.735Z,6.40
2019-01-20T11:35:42.321Z,5.70
2019-01-20T11:38:10.999Z,6.60
2019-01-20T11:40:39.659Z,6.60
2019-01-20T11:43:08.346Z,6.40
2019-01-20T11:45:37.034Z,6.20
2019-01-20T11:48:07.526Z,6.30
2019-01-20T11:50:36.118Z,5.80
2019-01-20T11:53:04.693Z,6.00
2019-01-20T11:55:34.678Z,6.50
2019-01-20T11:58:04.222Z,6.50
2019-01-20T12:00:35.816Z,7.30
2019-01-20T12:03:07.499Z,6.50
2019-01-20T12:05:40.109Z,6.90
2019-01-20T12:08:09.859Z,7.00
2019-01-20T12:10:39.651Z,7.20
2019-01-20T12:13:12.537Z,7.10
2019-01-20T12:15:41.626Z,7.20
2019-01-20T12:18:11.363Z,7.10
2019-01-20T12:20:40.016Z,6.60
2019-01-20T12:23:08.599Z,6.60
2019-01-20T12:25:37.182Z,7.20
2019-01-20T12:28:05.766Z,7.80
2019-01-20T12:30:36.126Z,7.50
2019-01-20T12:33:05.081Z,7.40
2019-01-20T12:35:33.693Z,7.70
2019-01-20T12:38:02.277Z,8.30
2019-01-20T12:40:36.410Z,8.30
2019-01-20T12:43:04.990Z,8.00
2019-01-20T12:45:33.725Z,7.40
2019-01-20T12:48:02.429Z,8.20
2019-01-20T12:50:31.012Z,7.70
2019-01-20T12:52:59.670Z,7.20
2019-01-20T12:55:28.273Z,7.80
2019-01-20T12:57:56.962Z,7.40
2019-01-20T13:00:25.555Z,7.80
2019-01-20T13:02:54.134Z,7.90
2019-01-20T13:05:24.110Z,8.00
2019-01-20T13:07:53.034Z,8.20
2019-01-20T13:10:21.615Z,7.70
2019-01-20T13:12:50.182Z,8.10
2019-01-20T13:15:19.860Z,8.20
2019-01-20T13:17:48.651Z,7.50
2019-01-20T13:20:19.288Z,7.60
2019-01-20T13:22:47.924Z,7.20
2019-01-20T13:25:18.823Z,7.80
2019-01-20T13:27:47.510Z,7.50
2019-01-20T13:30:18.324Z,8.20
2019-01-20T13:32:46.940Z,8.60
2019-01-20T13:35:16.601Z,7.50
2019-01-20T13:37:47.894Z,7.80
2019-01-20T13:40:23.206Z,7.40
2019-01-20T13:42:51.784Z,7.80
2019-01-20T13:45:20.387Z,8.20
2019-01-20T13:47:49.154Z,8.30
2019-01-20T13:50:18.472Z,8.20
2019-01-20T13:52:47.185Z,8.40
2019-01-20T13:55:15.837Z,8.50
2019-01-20T13:57:44.417Z,7.90
2019-01-20T14:00:15.876Z,7.70
2019-01-20T14:02:44.447Z,7.80
2019-01-20T14:05:13.014Z,8.30
2019-01-20T14:07:41.616Z,8.30
2019-01-20T14:10:12.048Z,8.40
2019-01-20T14:12:42.849Z,7.50
2019-01-20T14:15:12.648Z,8.10
2019-01-20T14:17:41.251Z,8.00
2019-01-20T14:20:14.410Z,7.80
2019-01-20T14:22:43.037Z,7.80
2019-01-20T14:25:12.994Z,7.60
2019-01-20T14:27:41.640Z,7.10
2019-01-20T14:30:13.542Z,7.20
2019-01-20T14:32:42.198Z,6.90
2019-01-20T14:35:10.963Z,7.00
2019-01-20T14:37:39.568Z,6.90
2019-01-20T14:40:09.309Z,6.70
2019-01-20T14:42:37.960Z,6.30
2019-01-20T14:45:07.613Z,6.30
2019-01-20T14:47:42.924Z,6.30
2019-01-20T14:50:14.863Z,6.20
2019-01-20T14:52:43.573Z,6.50
2019-01-20T14:55:12.201Z,5.70
2019-01-20T14:57:41.016Z,6.00
2019-01-20T15:00:14.022Z,6.40
2019-01-20T15:02:43.981Z,6.30
2019-01-20T15:05:24.886Z,6.00
2019-01-20T15:07:55.043Z,6.40
2019-01-20T15:10:27.034Z,6.20
2019-01-20T15:12:55.975Z,5.90
2019-01-20T15:15:28.595Z,5.80
2019-01-20T15:17:57.361Z,5.60
2019-01-20T15:20:26.018Z,5.60
2019-01-20T15:22:55.707Z,5.20
2019-01-20T15:25:24.586Z,4.80
2019-01-20T15:27:59.251Z,4.20
2019-01-20T15:30:29.705Z,3.90
2019-01-20T15:33:00.075Z,3.70
2019-01-20T15:35:28.970Z,3.20
2019-01-20T15:37:57.766Z,3.20
2019-01-20T15:40:27.902Z,2.90
2019-01-20T15:42:56.632Z,2.80
2019-01-20T15:45:25.340Z,2.50
2019-01-20T15:47:55.655Z,2.30
2019-01-20T15:50:26.510Z,2.20
2019-01-20T15:52:55.082Z,2.10
2019-01-20T15:55:23.704Z,2.00
2019-01-20T15:57:53.204Z,2.00
2019-01-20T16:00:24.219Z,1.80
2019-01-20T16:02:52.799Z,1.70
2019-01-20T16:05:21.407Z,1.60
2019-01-20T16:07:50.164Z,1.40
2019-01-20T16:10:18.810Z,1.20
2019-01-20T16:12:47.841Z,1.20
2019-01-20T16:15:30.786Z,0.90
2019-01-20T16:17:59.375Z,0.70
2019-01-20T16:20:29.381Z,0.70
2019-01-20T16:22:58.070Z,0.70
2019-01-20T16:25:28.890Z,0.50
2019-01-20T16:27:57.482Z,0.50
2019-01-20T16:30:28.542Z,0.40
2019-01-20T16:32:57.145Z,0.30
2019-01-20T16:35:26.147Z,0.30
2019-01-20T16:37:56.195Z,0.20
2019-01-20T16:40:24.820Z,0.10
2019-01-20T16:42:55.564Z,0.10
2019-01-20T16:45:42.030Z,0.00
2019-01-20T16:48:06.930Z,0.00
2019-01-20T16:50:35.846Z,-0.10
2019-01-20T16:53:05.336Z,-0.10
2019-01-20T16:55:33.968Z,-0.20
2019-01-20T16:58:02.666Z,-0.20
2019-01-20T17:00:32.834Z,-0.20
2019-01-20T17:03:01.458Z,-0.30
2019-01-20T17:05:30.038Z,-0.30
2019-01-20T17:07:58.679Z,-0.40
2019-01-20T17:10:29.630Z,-0.40
2019-01-20T17:12:58.222Z,-0.50
2019-01-20T17:15:29.667Z,-0.50
2019-01-20T17:17:58.313Z,-0.50
2019-01-20T17:20:26.883Z,-0.60
2019-01-20T17:22:55.523Z,-0.60
2019-01-20T17:25:24.076Z,-0.60
2019-01-20T17:27:52.698Z,-0.60
2019-01-20T17:30:23.512Z,-0.60
2019-01-20T17:32:53.949Z,-0.70
2019-01-20T17:35:22.540Z,-0.70
2019-01-20T17:37:51.151Z,-0.70
2019-01-20T17:40:21.846Z,-0.70
2019-01-20T17:42:50.435Z,-0.80
2019-01-20T17:45:24.041Z,-0.80
2019-01-20T17:47:52.734Z,-0.80
2019-01-20T17:50:23.873Z,-0.90
2019-01-20T17:52:54.505Z,-0.90
2019-01-20T17:55:24.199Z,-1.00
2019-01-20T17:57:52.774Z,-0.90
2019-01-20T18:00:24.729Z,-0.90
2019-01-20T18:02:53.322Z,-0.90
2019-01-20T18:05:23.062Z,-0.90
2019-01-20T18:07:53.436Z,-0.80
2019-01-20T18:10:22.013Z,-0.90
2019-01-20T18:12:50.610Z,-1.00
2019-01-20T18:15:20.249Z,-1.10
2019-01-20T18:17:51.184Z,-1.10
2019-01-20T18:20:25.820Z,-1.20
2019-01-20T18:22:54.386Z,-1.20
2019-01-20T18:25:23.863Z,-1.30
2019-01-20T18:27:52.457Z,-1.40
2019-01-20T18:30:25.346Z,-1.40
2019-01-20T18:32:54.482Z,-1.50
2019-01-20T18:35:25.080Z,-1.60
2019-01-20T18:37:53.703Z,-1.50
2019-01-20T18:40:24.098Z,-1.60
2019-01-20T18:42:54.943Z,-1.60
2019-01-20T18:45:31.014Z,-1.60
2019-01-20T18:48:00.014Z,-1.70
2019-01-20T18:50:36.021Z,-1.70
2019-01-20T18:53:05.017Z,-1.80
2019-01-20T18:55:38.402Z,-1.90
2019-01-20T18:58:07.541Z,-1.90
2019-01-20T19:00:54.446Z,-1.90
2019-01-20T19:03:23.112Z,-2.00
2019-01-20T19:05:51.695Z,-2.00
2019-01-20T19:08:20.297Z,-2.10
2019-01-20T19:10:49.104Z,-2.10
2019-01-20T19:13:17.755Z,-2.20
2019-01-20T19:15:46.376Z,-2.20
2019-01-20T19:18:18.869Z,-2.20
2019-01-20T19:20:45.381Z,-2.30
2019-01-20T19:23:14.015Z,-2.30
2019-01-20T19:25:42.689Z,-2.30
2019-01-20T19:28:11.309Z,-2.30
2019-01-20T19:30:39.915Z,-2.30
2019-01-20T19:33:09.090Z,-2.40
2019-01-20T19:35:37.823Z,-2.40
2019-01-20T19:38:06.393Z,-2.40
2019-01-20T19:40:35.107Z,-2.50
2019-01-20T19:43:03.696Z,-2.50
2019-01-20T19:45:32.276Z,-2.60
2019-01-20T19:48:00.900Z,-2.70
2019-01-20T19:50:39.730Z,-2.70
2019-01-20T19:53:08.311Z,-2.80
2019-01-20T19:55:36.897Z,-2.80
2019-01-20T19:58:05.662Z,-2.80
2019-01-20T20:00:34.234Z,-2.80
2019-01-20T20:03:02.821Z,-2.80
2019-01-20T20:05:31.889Z,-2.80
2019-01-20T20:08:00.530Z,-2.90
2019-01-20T20:10:29.140Z,-2.90
2019-01-20T20:12:58.288Z,-2.90
2019-01-20T20:15:28.293Z,-2.90
2019-01-20T20:17:56.914Z,-2.90
2019-01-20T20:20:25.526Z,-2.80
2019-01-20T20:22:54.190Z,-2.80
2019-01-20T20:25:23.769Z,-2.80
2019-01-20T20:27:52.677Z,-2.80
2019-01-20T20:30:29.418Z,-2.80
2019-01-20T20:32:58.075Z,-2.80
2019-01-20T20:35:26.724Z,-2.80
2019-01-20T20:37:55.418Z,-2.80
2019-01-20T20:40:24.006Z,-2.80
2019-01-20T20:42:52.618Z,-2.90
2019-01-20T20:45:22.365Z,-2.80
2019-01-20T20:47:50.946Z,-2.90
2019-01-20T20:50:19.606Z,-2.90
2019-01-20T20:52:48.178Z,-2.90
2019-01-20T20:55:18.222Z,-2.90
2019-01-20T20:57:49.226Z,-2.80
2019-01-20T21:00:36.650Z,-2.70
2019-01-20T21:03:09.575Z,-2.70
2019-01-20T21:05:38.149Z,-2.60
2019-01-20T21:08:07.138Z,-2.60
2019-01-20T21:10:37.223Z,-2.50
2019-01-20T21:13:05.906Z,-2.50
2019-01-20T21:15:34.677Z,-2.60
2019-01-20T21:18:04.011Z,-2.60
2019-01-20T21:20:33.172Z,-2.70
2019-01-20T21:23:01.896Z,-2.70
2019-01-20T21:25:30.938Z,-2.80
2019-01-20T21:28:01.357Z,-2.70
2019-01-20T21:30:30.713Z,-2.70
2019-01-20T21:32:59.322Z,-2.80
2019-01-20T21:35:34.246Z,-2.80
2019-01-20T21:38:06.903Z,-2.80
2019-01-20T21:40:34.206Z,-2.70
2019-01-20T21:43:03.202Z,-2.80
2019-01-20T21:45:31.862Z,-2.80
2019-01-20T21:48:00.663Z,-2.80
2019-01-20T21:50:30.792Z,-2.90
2019-01-20T21:53:01.029Z,-2.90
2019-01-20T21:55:29.713Z,-3.00
2019-01-20T21:57:58.373Z,-3.00
2019-01-20T22:00:28.440Z,-3.00
2019-01-20T22:02:57.024Z,-3.10
2019-01-20T22:05:25.892Z,-3.10
2019-01-20T22:07:55.661Z,-3.20
2019-01-20T22:10:24.469Z,-3.20
2019-01-20T22:12:53.058Z,-3.20
2019-01-20T22:15:21.849Z,-3.30
2019-01-20T22:17:50.645Z,-3.40
2019-01-20T22:20:20.956Z,-3.50
2019-01-20T22:22:49.768Z,-3.50
2019-01-20T22:25:19.292Z,-3.60
2019-01-20T22:27:48.306Z,-3.60
2019-01-20T22:30:30.031Z,-3.60
2019-01-20T22:33:00.235Z,-3.60
2019-01-20T22:35:29.420Z,-3.60
2019-01-20T22:37:58.275Z,-3.70
2019-01-20T22:40:27.450Z,-3.70
2019-01-20T22:42:56.038Z,-3.80
2019-01-20T22:45:26.689Z,-3.80
2019-01-20T22:47:55.688Z,-3.80
2019-01-20T22:50:25.075Z,-3.90
2019-01-20T22:52:53.890Z,-3.90
2019-01-20T22:55:22.829Z,-3.90
2019-01-20T22:57:51.825Z,-4.00
2019-01-20T23:00:30.510Z,-3.90
2019-01-20T23:02:59.231Z,-3.90
2019-01-20T23:05:27.974Z,-4.00
2019-01-20T23:07:57.294Z,-4.00
2019-01-20T23:10:25.976Z,-4.00
2019-01-20T23:12:54.566Z,-4.10
2019-01-20T23:15:23.697Z,-4.10
2019-01-20T23:17:52.341Z,-4.20
2019-01-20T23:20:21.043Z,-4.20
2019-01-20T23:22:49.730Z,-4.20
2019-01-20T23:25:18.338Z,-4.20
2019-01-20T23:27:47.327Z,-4.20
2019-01-20T23:30:16.168Z,-4.20
2019-01-20T23:32:44.770Z,-4.30
2019-01-20T23:35:13.358Z,-4.30
2019-01-20T23:37:41.934Z,-4.30
2019-01-20T23:40:10.727Z,-4.40
2019-01-20T23:42:39.298Z,-4.40
2019-01-20T23:45:09.362Z,-4.40
2019-01-20T23:47:37.926Z,-4.40
2019-01-20T23:50:08.734Z,-4.40
2019-01-20T23:52:37.377Z,-4.40
2019-01-20T23:55:06.186Z,-4.40
2019-01-20T23:57:34.767Z,-4.40
